Time;durP1;ratioP1;P1;durP2;ratioP2;P2;SDS_P1;SDS_P2;PMS_P1;PMS_P2;Temp;Humidity;BMP_temperature;BMP_pressure;BME280_temperature;BME280_humidity;BME280_pressure;Samples;Min_cycle;Max_cycle;Signal;HPM_P1;HPM_P2
2022/04/20 00:01:28;;;;;;;;;;;;;;;11.93;61.28;97734.50;5080953;28;19970;-69
2022/04/20 00:06:53;;;;;;;;;;;;;;;10.32;69.58;97741.75;5056384;28;19951;-69
2022/04/20 00:09:19;;;;;;;;;;;;;;;10.64;71.06;97731.63;5080892;28;19954;-69
2022/04/20 00:11:47;;;;;;;;;;;;;;;11.05;69.06;97734.25;5078318;28;19920;-69
2022/04/20 00:14:13;;;;;;;;;;;;;;;11.11;67.50;97728.63;5076841;28;19956;-69
2022/04/20 00:16:41;;;;;;;;;;;;;;;11.08;67.07;97729.16;5077135;28;19980;-69
2022/04/20 00:19:07;;;;;;;;;;;;;;;10.78;68.64;97739.88;5079201;28;20015;-70
2022/04/20 00:21:34;;;;;;;;;;;;;;;10.97;68.95;97740.13;5080498;28;20018;-70
2022/04/20 00:24:00;;;;;;;;;;;;;;;11.38;66.21;97744.34;5076248;28;19932;-70
2022/04/20 00:26:26;;;;;;;;;;;;;;;11.55;64.59;97750.16;5075723;28;19925;-68
2022/04/20 00:28:53;;;;;;;;;;;;;;;11.61;64.06;97749.06;5079125;28;19925;-68
2022/04/20 00:31:19;;;;;;;;;;;;;;;11.67;63.64;97737.28;5079436;28;19925;-68
2022/04/20 00:33:47;;;;;;;;;;;;;;;11.70;63.50;97747.47;5078478;28;19936;-68
2022/04/20 00:36:14;;;;;;;;;;;;;;;11.73;63.21;97744.22;5077096;28;19924;-68
2022/04/20 00:38:41;;;;;;;;;;;;;;;11.72;62.93;97742.66;5077263;28;20178;-69
2022/04/20 00:41:08;;;;;;;;;;;;;;;11.68;63.45;97749.59;5079472;28;19924;-68
2022/04/20 00:43:34;;;;;;;;;;;;;;;11.69;63.70;97748.53;5080311;28;19988;-69
2022/04/20 00:46:01;;;;;;;;;;;;;;;11.68;63.65;97743.44;5077524;28;19928;-68
2022/04/20 00:48:28;;;;;;;;;;;;;;;11.63;63.84;97746.94;5076825;28;19952;-68
2022/04/20 00:50:55;;;;;;;;;;;;;;;11.64;63.58;97748.53;5079045;28;19964;-68
2022/04/20 00:53:22;;;;;;;;;;;;;;;11.64;63.67;97747.72;5079052;28;19925;-67
2022/04/20 00:55:48;;;;;;;;;;;;;;;11.60;63.63;97744.81;5078465;28;20031;-68
2022/04/20 00:58:15;;;;;;;;;;;;;;;11.48;64.29;97738.16;5076292;28;19928;-68
2022/04/20 01:00:41;;;;;;;;;;;;;;;11.54;64.34;97742.44;5076634;28;20006;-68
2022/04/20 01:03:08;;;;;;;;;;;;;;;11.58;63.82;97744.25;5079088;28;19932;-68
2022/04/20 01:05:34;;;;;;;;;;;;;;;11.54;64.20;97751.25;5079097;28;19931;-68
2022/04/20 01:08:02;;;;;;;;;;;;;;;11.57;64.15;97748.03;5076042;28;19951;-68
2022/04/20 01:10:29;;;;;;;;;;;;;;;11.57;64.09;97748.03;5075607;28;19925;-69
2022/04/20 01:12:56;;;;;;;;;;;;;;;11.57;64.26;97742.69;5076384;28;19925;-69
2022/04/20 01:15:23;;;;;;;;;;;;;;;11.57;64.08;97749.91;5078560;28;19937;-69
2022/04/20 01:17:49;;;;;;;;;;;;;;;11.55;64.36;97752.03;5077915;28;20357;-69
2022/04/20 01:20:17;;;;;;;;;;;;;;;11.55;64.34;97744.81;5074983;28;19929;-69
2022/04/20 01:22:45;;;;;;;;;;;;;;;11.50;64.48;97736.00;5076480;28;19978;-69
2022/04/20 01:25:13;;;;;;;;;;;;;;;11.36;65.08;97746.47;5077375;28;20014;-69
2022/04/20 01:27:40;;;;;;;;;;;;;;;11.28;65.94;97747.84;5078429;28;19925;-69
2022/04/20 01:30:07;;;;;;;;;;;;;;;11.14;66.79;97743.34;5075207;28;19943;-69
2022/04/20 01:32:33;;;;;;;;;;;;;;;10.73;69.25;97732.69;5075342;28;19924;-69
2022/04/20 01:35:00;;;;;;;;;;;;;;;10.60;71.79;97738.56;5077949;28;20011;-69
2022/04/20 01:37:26;;;;;;;;;;;;;;;10.86;70.92;97739.38;5078714;28;20235;-69
2022/04/20 01:39:54;;;;;;;;;;;;;;;11.06;69.17;97738.53;5076536;28;19924;-69
2022/04/20 01:42:20;;;;;;;;;;;;;;;11.22;67.92;97734.75;5075178;28;19943;-69
2022/04/20 01:44:47;;;;;;;;;;;;;;;11.29;67.29;97743.31;5076180;28;19925;-67
2022/04/20 01:47:13;;;;;;;;;;;;;;;11.32;66.80;97737.41;5078244;28;19962;-68
2022/04/20 01:49:40;;;;;;;;;;;;;;;11.30;66.68;97731.50;5076995;28;19920;-68
2022/04/20 01:52:06;;;;;;;;;;;;;;;11.29;66.99;97740.63;5074756;28;20057;-68
2022/04/20 01:54:33;;;;;;;;;;;;;;;11.24;67.19;97740.63;5073466;28;19924;-68
2022/04/20 01:57:00;;;;;;;;;;;;;;;11.20;67.87;97734.22;5077424;28;20635;-68
2022/04/20 01:59:27;;;;;;;;;;;;;;;11.18;67.75;97736.34;5078068;28;19988;-68
2022/04/20 02:04:37;;;;;;;;;;;;;;;11.26;67.18;97739.28;5073826;28;19932;-68
2022/04/20 02:07:04;;;;;;;;;;;;;;;11.22;67.53;97732.09;5066263;28;19925;-68
2022/04/20 02:09:30;;;;;;;;;;;;;;;11.17;67.71;97737.44;5073651;28;19948;-68
2022/04/20 02:11:57;;;;;;;;;;;;;;;11.20;67.76;97743.03;5075172;28;19924;-68
2022/04/20 02:14:26;;;;;;;;;;;;;;;11.01;68.07;97738.53;5078909;28;19955;-67
2022/04/20 02:16:53;;;;;;;;;;;;;;;10.94;69.53;97736.13;5074913;28;19925;-68
2022/04/20 02:19:19;;;;;;;;;;;;;;;10.73;70.29;97731.88;5077709;28;19928;-69
2022/04/20 02:21:46;;;;;;;;;;;;;;;10.83;70.85;97745.25;5075342;28;19924;-69
2022/04/20 02:24:13;;;;;;;;;;;;;;;10.95;69.83;97736.94;5073256;28;19931;-69
2022/04/20 02:26:40;;;;;;;;;;;;;;;10.66;70.62;97736.69;5074532;28;19931;-69
2022/04/20 02:29:07;;;;;;;;;;;;;;;10.21;73.55;97740.13;5077097;28;19955;-69
2022/04/20 02:31:35;;;;;;;;;;;;;;;9.85;77.80;97741.88;5077152;28;20406;-69
2022/04/20 02:34:01;;;;;;;;;;;;;;;9.87;79.54;97741.63;5075147;28;19925;-69
2022/04/20 02:36:27;;;;;;;;;;;;;;;10.22;76.85;97742.53;5073840;28;20387;-69
2022/04/20 02:38:54;;;;;;;;;;;;;;;10.48;74.33;97746.03;5077527;28;19956;-69
2022/04/20 02:41:20;;;;;;;;;;;;;;;10.65;72.86;97741.22;5078084;28;19977;-68
2022/04/20 02:43:49;;;;;;;;;;;;;;;10.74;71.51;97739.63;5075856;28;20421;-69
2022/04/20 02:46:15;;;;;;;;;;;;;;;10.79;70.88;97744.16;5075016;28;19924;-69
2022/04/20 02:48:43;;;;;;;;;;;;;;;10.80;70.38;97737.75;5075111;28;19932;-69
2022/04/20 02:51:09;;;;;;;;;;;;;;;10.80;70.31;97743.88;5078688;28;19943;-69
2022/04/20 02:53:36;;;;;;;;;;;;;;;10.80;70.24;97741.22;5078296;28;19924;-69
2022/04/20 02:56:02;;;;;;;;;;;;;;;10.79;70.10;97734.28;5079037;28;19932;-69
2022/04/20 02:58:29;;;;;;;;;;;;;;;10.79;69.59;97744.16;5081395;28;20004;-69
2022/04/20 03:00:56;;;;;;;;;;;;;;;10.75;69.83;97741.22;5082670;28;19948;-69
2022/04/20 03:03:22;;;;;;;;;;;;;;;10.75;69.68;97735.06;5083550;28;19924;-68
2022/04/20 03:05:51;;;;;;;;;;;;;;;10.73;69.52;97738.03;5083390;28;19925;-68
2022/04/20 03:08:17;;;;;;;;;;;;;;;10.41;70.90;97734.00;5081214;28;19925;-68
2022/04/20 03:10:44;;;;;;;;;;;;;;;10.38;72.41;97740.69;5081739;28;19929;-68
2022/04/20 03:13:10;;;;;;;;;;;;;;;10.47;72.36;97738.28;5084184;28;19943;-69
2022/04/20 03:15:37;;;;;;;;;;;;;;;10.55;71.44;97741.22;5084415;28;19984;-69
2022/04/20 03:18:03;;;;;;;;;;;;;;;10.55;70.81;97737.75;5080649;28;19925;-69
2022/04/20 03:20:30;;;;;;;;;;;;;;;10.52;71.09;97741.75;5079642;28;19921;-69
2022/04/20 03:22:57;;;;;;;;;;;;;;;10.60;70.16;97743.09;5083462;28;19999;-69
2022/04/20 03:25:24;;;;;;;;;;;;;;;10.39;71.00;97752.16;5082380;28;20688;-69
2022/04/20 03:27:50;;;;;;;;;;;;;;;10.17;72.52;97747.06;5082145;28;19925;-69
2022/04/20 03:30:17;;;;;;;;;;;;;;;9.16;77.62;97755.41;5080238;28;19935;-69
2022/04/20 03:32:43;;;;;;;;;;;;;;;8.86;82.34;97759.72;5080754;28;20043;-69
2022/04/20 03:35:10;;;;;;;;;;;;;;;8.51;86.03;97761.03;5083994;28;19959;-69
2022/04/20 03:37:37;;;;;;;;;;;;;;;8.25;88.57;97761.03;5083784;28;19946;-69
2022/04/20 03:40:05;;;;;;;;;;;;;;;8.44;87.53;97755.16;5080300;28;19992;-69
2022/04/20 03:42:32;;;;;;;;;;;;;;;8.62;87.41;97759.28;5080363;28;19998;-70
2022/04/20 03:44:58;;;;;;;;;;;;;;;9.23;83.52;97749.84;5082370;28;19924;-70
2022/04/20 03:47:25;;;;;;;;;;;;;;;8.49;85.94;97749.06;5082588;28;19942;-69
2022/04/20 03:49:51;;;;;;;;;;;;;;;8.12;88.81;97754.25;5081683;28;19946;-69
2022/04/20 03:52:17;;;;;;;;;;;;;;;7.93;90.54;97745.00;5078997;28;19925;-69
2022/04/20 03:54:44;;;;;;;;;;;;;;;8.70;86.41;97755.38;5080575;28;19940;-69
2022/04/20 03:57:12;;;;;;;;;;;;;;;8.81;84.66;97747.19;5083521;28;19924;-70
2022/04/20 03:59:39;;;;;;;;;;;;;;;9.41;82.10;97749.41;5082169;28;19963;-68
2022/04/20 04:02:06;;;;;;;;;;;;;;;9.74;78.96;97748.25;5058540;28;19936;-68
2022/04/20 04:04:33;;;;;;;;;;;;;;;9.94;76.98;97739.47;5075431;28;19932;-69
2022/04/20 04:07:00;;;;;;;;;;;;;;;10.05;75.74;97744.59;5079170;28;19935;-68
2022/04/20 04:09:26;;;;;;;;;;;;;;;10.10;75.08;97757.13;5080222;28;19925;-68
2022/04/20 04:11:53;;;;;;;;;;;;;;;10.12;74.63;97747.03;5077992;28;19925;-68
2022/04/20 04:14:22;;;;;;;;;;;;;;;10.15;74.37;97744.63;5076682;28;19921;-69
2022/04/20 04:16:48;;;;;;;;;;;;;;;10.17;74.52;97755.88;5077989;28;19928;-69
2022/04/20 04:19:15;;;;;;;;;;;;;;;10.17;74.15;97752.41;5080068;28;19920;-69
2022/04/20 04:21:41;;;;;;;;;;;;;;;10.08;74.12;97746.75;5079613;28;19999;-69
2022/04/20 04:24:34;;;;;;;;;;;;;;;9.46;77.87;97748.66;5075026;28;19920;-69
2022/04/20 04:26:56;;;;;;;;;;;;;;;9.06;81.13;97747.38;5078700;28;19946;-69
2022/04/20 04:29:24;;;;;;;;;;;;;;;8.90;83.05;97747.50;5079724;28;19924;-69
2022/04/20 04:31:50;;;;;;;;;;;;;;;8.20;87.10;97759.13;5077791;28;19925;-69
2022/04/20 04:34:17;;;;;;;;;;;;;;;8.12;88.66;97759.56;5076153;28;19924;-69
2022/04/20 04:36:43;;;;;;;;;;;;;;;8.17;90.06;97759.63;5077090;28;19925;-69
2022/04/20 04:39:09;;;;;;;;;;;;;;;8.13;90.48;97759.34;5079787;28;19931;-69
2022/04/20 04:41:36;;;;;;;;;;;;;;;7.75;92.52;97758.63;5080087;28;19992;-69
2022/04/20 04:44:02;;;;;;;;;;;;;;;7.77;92.48;97754.66;5075495;28;19933;-69
2022/04/20 04:49:14;;;;;;;;;;;;;;;7.80;93.80;97761.38;5064865;28;19935;-69
2022/04/20 04:51:41;;;;;;;;;;;;;;;8.50;90.01;97762.13;5075101;28;19924;-69
2022/04/20 04:54:07;;;;;;;;;;;;;;;9.28;83.68;97757.09;5079988;28;19943;-69
2022/04/20 04:56:33;;;;;;;;;;;;;;;9.53;80.74;97771.31;5078823;28;19960;-69
2022/04/20 04:59:00;;;;;;;;;;;;;;;8.75;83.51;97774.03;5077201;28;19991;-69
2022/04/20 05:01:26;;;;;;;;;;;;;;;7.98;88.13;97772.44;5076432;28;20015;-69
2022/04/20 05:03:54;;;;;;;;;;;;;;;7.86;90.48;97782.41;5078219;28;19925;-68
2022/04/20 05:06:21;;;;;;;;;;;;;;;7.36;94.13;97787.94;5079457;28;19967;-68
2022/04/20 05:08:47;;;;;;;;;;;;;;;7.56;94.72;97785.53;5077978;28;19925;-69
2022/04/20 05:11:14;;;;;;;;;;;;;;;7.91;92.79;97779.84;5074457;28;20016;-68
2022/04/20 05:13:40;;;;;;;;;;;;;;;8.33;89.68;97777.38;5075106;28;19924;-69
2022/04/20 05:16:08;;;;;;;;;;;;;;;7.34;92.31;97778.56;5074102;28;19920;-69
2022/04/20 05:18:35;;;;;;;;;;;;;;;7.32;93.50;97775.38;5074696;28;19931;-71
2022/04/20 05:21:02;;;;;;;;;;;;;;;6.65;98.36;97777.28;5078006;28;20290;-71
2022/04/20 05:23:29;;;;;;;;;;;;;;;6.93;98.97;97782.53;5078478;28;20003;-71
2022/04/20 05:25:56;;;;;;;;;;;;;;;7.22;98.53;97778.69;5075220;28;19954;-71
2022/04/20 05:28:22;;;;;;;;;;;;;;;7.81;91.89;97777.06;5073982;28;19924;-71
2022/04/20 05:30:49;;;;;;;;;;;;;;;7.51;93.46;97782.81;5074634;28;19992;-71
2022/04/20 05:33:16;;;;;;;;;;;;;;;6.94;97.56;97786.75;5078494;28;19929;-71
2022/04/20 05:35:42;;;;;;;;;;;;;;;7.03;98.89;97783.47;5078153;28;20257;-71
2022/04/20 05:43:38;;;;;;;;;;;;;;;8.46;88.64;97776.97;5078339;28;20244;-71
2022/04/20 05:46:05;;;;;;;;;;;;;;;9.01;84.16;97768.63;5067041;28;19924;-71
2022/04/20 05:48:32;;;;;;;;;;;;;;;9.38;82.01;97771.25;5073949;28;19947;-71
2022/04/20 05:50:58;;;;;;;;;;;;;;;9.46;81.07;97776.09;5077895;28;20417;-70
2022/04/20 05:53:26;;;;;;;;;;;;;;;9.40;81.96;97769.16;5078746;28;19983;-70
2022/04/20 05:55:53;;;;;;;;;;;;;;;9.86;79.40;97774.69;5074694;28;19955;-70
2022/04/20 05:58:19;;;;;;;;;;;;;;;10.12;77.77;97779.03;5074626;28;19925;-70
2022/04/20 06:00:45;;;;;;;;;;;;;;;10.28;77.17;97778.84;5075195;28;20015;-70
2022/04/20 06:03:12;;;;;;;;;;;;;;;10.48;76.53;97783.41;5076726;28;19980;-70
2022/04/20 06:05:41;;;;;;;;;;;;;;;10.63;75.92;97775.41;5076635;28;19920;-70
2022/04/20 06:08:08;;;;;;;;;;;;;;;10.73;75.53;97782.63;5066386;28;19928;-70
2022/04/20 06:10:36;;;;;;;;;;;;;;;10.66;75.62;97774.88;5074501;28;19948;-70
2022/04/20 06:13:02;;;;;;;;;;;;;;;10.71;75.89;97777.53;5077524;28;19939;-70
2022/04/20 06:15:28;;;;;;;;;;;;;;;10.57;77.12;97781.00;5076659;28;19935;-70
2022/04/20 06:17:55;;;;;;;;;;;;;;;10.79;77.07;97774.34;5073991;28;19925;-70
2022/04/20 06:20:22;;;;;;;;;;;;;;;10.74;76.71;97770.84;5073059;28;19944;-70
2022/04/20 06:22:48;;;;;;;;;;;;;;;11.29;74.40;97772.72;5075431;28;19992;-70
2022/04/20 06:25:15;;;;;;;;;;;;;;;11.47;72.54;97766.78;5077614;28;19920;-70
2022/04/20 06:27:42;;;;;;;;;;;;;;;11.58;71.62;97771.00;5077741;28;19954;-71
2022/04/20 06:30:09;;;;;;;;;;;;;;;11.73;71.20;97767.50;5073367;28;19971;-71
2022/04/20 06:32:36;;;;;;;;;;;;;;;12.11;69.41;97763.31;5072729;28;19929;-71
2022/04/20 06:35:03;;;;;;;;;;;;;;;12.27;68.00;97759.50;5077158;28;19984;-71
2022/04/20 06:37:30;;;;;;;;;;;;;;;12.39;67.28;97759.94;5077434;28;19921;-70
2022/04/20 06:39:57;;;;;;;;;;;;;;;11.30;70.71;97755.56;5074983;28;19928;-70
2022/04/20 06:42:23;;;;;;;;;;;;;;;11.47;74.16;97753.41;5072517;28;19980;-71
2022/04/20 06:44:51;;;;;;;;;;;;;;;11.61;72.35;97743.72;5075120;28;19968;-71
2022/04/20 06:47:17;;;;;;;;;;;;;;;11.47;74.24;97753.41;5075912;28;19931;-71
2022/04/20 06:49:44;;;;;;;;;;;;;;;11.95;73.74;97748.41;5076486;28;19925;-71
2022/04/20 07:00:25;;;;;;;;;;;;;;;11.56;75.74;97745.63;5068171;28;19971;-71
2022/04/20 07:02:58;;;;;;;;;;;;;;;11.88;73.96;97746.84;5074294;28;19932;-71
2022/04/20 07:05:25;;;;;;;;;;;;;;;12.65;70.14;97742.63;5077362;28;19920;-71
2022/04/20 07:07:51;;;;;;;;;;;;;;;13.11;67.18;97734.22;5075473;28;20267;-71
2022/04/20 07:10:17;;;;;;;;;;;;;;;13.24;65.54;97736.22;5073631;28;20246;-71
2022/04/20 07:12:44;;;;;;;;;;;;;;;13.35;64.28;97735.03;5072898;28;19924;-71
2022/04/20 07:15:10;;;;;;;;;;;;;;;13.57;63.17;97719.22;5075959;28;19925;-71
2022/04/20 07:17:38;;;;;;;;;;;;;;;13.32;63.22;97724.88;5076978;28;19984;-71
2022/04/20 07:20:06;;;;;;;;;;;;;;;13.45;63.34;97718.81;5064462;28;19925;-70
2022/04/20 07:22:33;;;;;;;;;;;;;;;13.64;62.06;97722.38;5072652;28;19924;-71
2022/04/20 07:25:00;;;;;;;;;;;;;;;13.65;61.40;97729.31;5075150;28;19935;-71
2022/04/20 07:27:26;;;;;;;;;;;;;;;12.77;62.60;97732.34;5075972;28;19978;-71
2022/04/20 07:29:53;;;;;;;;;;;;;;;12.89;63.69;97716.69;5073867;28;19925;-69
2022/04/20 07:32:19;;;;;;;;;;;;;;;12.04;64.76;97718.13;5073941;28;19960;-70
2022/04/20 07:34:47;;;;;;;;;;;;;;;11.41;66.18;97721.59;5073123;28;19935;-70
2022/04/20 07:37:14;;;;;;;;;;;;;;;10.87;70.62;97714.22;5077117;28;19924;-70
2022/04/20 07:39:40;;;;;;;;;;;;;;;11.28;72.71;97723.78;5076813;28;19932;-70
2022/04/20 07:42:07;;;;;;;;;;;;;;;11.25;72.46;97721.66;5075493;28;19925;-70
2022/04/20 07:44:33;;;;;;;;;;;;;;;11.27;69.67;97718.69;5080808;28;19945;-70
2022/04/20 07:46:59;;;;;;;;;;;;;;;10.81;69.06;97718.78;5079073;28;19970;-70
2022/04/20 07:52:11;;;;;;;;;;;;;;;11.07;63.97;97708.06;5069808;28;19955;-70
2022/04/20 07:54:38;;;;;;;;;;;;;;;10.76;58.81;97718.81;5077147;28;19925;-70
2022/04/20 07:57:04;;;;;;;;;;;;;;;10.67;60.42;97723.09;5080486;28;19935;-70
2022/04/20 07:59:31;;;;;;;;;;;;;;;10.28;60.29;97713.97;5078940;28;19925;-70
2022/04/20 08:01:57;;;;;;;;;;;;;;;10.34;62.10;97715.56;5077528;28;20451;-70
2022/04/20 08:04:23;;;;;;;;;;;;;;;11.08;61.40;97717.69;5076537;28;19963;-70
2022/04/20 08:06:50;;;;;;;;;;;;;;;10.54;62.79;97720.94;5076596;28;19932;-70
2022/04/20 08:09:19;;;;;;;;;;;;;;;10.25;62.81;97715.31;5080004;28;19980;-71
2022/04/20 08:11:45;;;;;;;;;;;;;;;10.44;63.38;97717.44;5079000;28;19950;-70
2022/04/20 08:14:12;;;;;;;;;;;;;;;11.08;61.22;97715.03;5076344;28;19947;-70
2022/04/20 08:16:38;;;;;;;;;;;;;;;11.06;59.93;97711.78;5076256;28;19990;-70
2022/04/20 08:19:06;;;;;;;;;;;;;;;11.04;57.79;97706.75;5068063;28;19921;-71
2022/04/20 08:21:33;;;;;;;;;;;;;;;11.15;59.31;97712.84;5074907;28;19931;-70
2022/04/20 08:23:59;;;;;;;;;;;;;;;11.33;58.01;97709.59;5078905;28;19962;-70
2022/04/20 08:26:27;;;;;;;;;;;;;;;11.22;56.14;97702.69;5079491;28;20420;-71
2022/04/20 08:28:53;;;;;;;;;;;;;;;10.81;56.57;97700.09;5077656;28;19924;-71
2022/04/20 08:31:20;;;;;;;;;;;;;;;10.44;56.91;97702.25;5076192;28;19948;-71
2022/04/20 08:33:46;;;;;;;;;;;;;;;10.35;57.20;97697.69;5077203;28;19929;-71
2022/04/20 08:36:13;;;;;;;;;;;;;;;10.49;57.68;97691.56;5079523;28;19966;-71
2022/04/20 08:38:40;;;;;;;;;;;;;;;10.82;57.02;97685.66;5079273;28;19931;-71
2022/04/20 08:41:09;;;;;;;;;;;;;;;11.37;57.46;97686.59;5075954;28;19980;-71
2022/04/20 08:43:40;;;;;;;;;;;;;;;11.51;54.58;97689.50;5076085;28;20352;-71
2022/04/20 08:46:09;;;;;;;;;;;;;;;11.57;54.86;97686.53;5068057;28;20451;-71
2022/04/20 08:48:35;;;;;;;;;;;;;;;11.19;54.96;97689.84;5074533;28;20009;-71
2022/04/20 08:51:03;;;;;;;;;;;;;;;11.58;55.52;97684.63;5077400;28;19943;-71
2022/04/20 08:53:30;;;;;;;;;;;;;;;11.55;54.02;97695.88;5077164;28;19920;-71
2022/04/20 08:57:15;;;;;;;;;;;;;;;11.79;54.77;97692.31;5076935;28;19920;-71
2022/04/20 08:58:47;;;;;;;;;;;;;;;11.39;53.20;97681.75;5074514;28;19957;-70
2022/04/20 09:01:14;;;;;;;;;;;;;;;11.30;54.35;97686.88;5079167;28;19949;-70
2022/04/20 09:03:40;;;;;;;;;;;;;;;11.73;54.86;97677.34;5077730;28;19924;-71
2022/04/20 09:06:07;;;;;;;;;;;;;;;12.08;54.21;97681.69;5075358;28;19971;-70
2022/04/20 09:08:34;;;;;;;;;;;;;;;11.93;52.07;97683.66;5075340;28;19924;-70
2022/04/20 09:11:01;;;;;;;;;;;;;;;11.57;52.88;97683.84;5078278;28;19928;-70
2022/04/20 09:13:31;;;;;;;;;;;;;;;11.60;52.18;97682.50;5078928;28;19992;-70
2022/04/20 09:16:04;;;;;;;;;;;;;;;11.77;53.35;97675.72;5076223;28;19924;-70
2022/04/20 09:18:31;;;;;;;;;;;;;;;11.57;51.42;97683.03;5075194;28;19925;-70
2022/04/20 09:21:04;;;;;;;;;;;;;;;11.93;52.71;97662.25;5077534;28;19927;-70
2022/04/20 09:23:30;;;;;;;;;;;;;;;11.71;51.39;97668.81;5078428;28;20418;-71
2022/04/20 09:25:57;;;;;;;;;;;;;;;11.57;52.29;97667.78;5075868;28;19979;-71
2022/04/20 09:28:24;;;;;;;;;;;;;;;12.35;51.96;97665.16;5074006;28;19921;-70
2022/04/20 09:30:51;;;;;;;;;;;;;;;12.17;50.59;97658.63;5075187;28;19947;-70
2022/04/20 09:33:18;;;;;;;;;;;;;;;12.27;52.15;97660.44;5078310;28;19928;-70
2022/04/20 09:35:46;;;;;;;;;;;;;;;12.84;51.06;97657.75;5076782;28;19935;-70
2022/04/20 09:38:13;;;;;;;;;;;;;;;12.91;50.12;97655.56;5074982;28;19968;-70
2022/04/20 09:40:40;;;;;;;;;;;;;;;12.88;48.91;97648.06;5073240;28;19929;-70
2022/04/20 09:43:07;;;;;;;;;;;;;;;11.95;48.08;97654.75;5078127;28;19931;-70
2022/04/20 09:45:34;;;;;;;;;;;;;;;12.23;49.93;97656.69;5076884;28;19924;-71
2022/04/20 09:51:07;;;;;;;;;;;;;;;12.66;49.89;97639.72;5075459;28;19928;-71
2022/04/20 09:53:34;;;;;;;;;;;;;;;12.56;47.71;97642.50;5077897;28;19924;-71
2022/04/20 09:56:14;;;;;;;;;;;;;;;12.36;49.02;97646.16;5075083;28;19929;-71
2022/04/20 09:58:41;;;;;;;;;;;;;;;12.76;49.20;97644.19;5073164;28;20067;-70
2022/04/20 10:01:07;;;;;;;;;;;;;;;13.38;48.88;97638.69;5077625;28;19956;-70
2022/04/20 10:03:34;;;;;;;;;;;;;;;13.28;46.59;97632.66;5077890;28;19963;-70
2022/04/20 10:06:02;;;;;;;;;;;;;;;12.75;47.23;97635.34;5072907;28;19967;-71
2022/04/20 10:08:29;;;;;;;;;;;;;;;13.04;47.08;97624.59;5073190;28;19925;-71
2022/04/20 10:10:56;;;;;;;;;;;;;;;13.19;46.48;97627.13;5076464;28;19927;-71
2022/04/20 10:13:23;;;;;;;;;;;;;;;13.34;46.37;97626.13;5077657;28;19991;-71
2022/04/20 10:16:05;;;;;;;;;;;;;;;13.74;47.72;97624.81;5076048;28;19968;-72
2022/04/20 10:18:33;;;;;;;;;;;;;;;14.05;47.49;97616.00;5074155;28;19925;-71
2022/04/20 10:21:01;;;;;;;;;;;;;;;14.16;46.76;97615.88;5076700;28;19932;-72
2022/04/20 10:23:29;;;;;;;;;;;;;;;13.73;45.30;97615.97;5077622;28;19992;-71
2022/04/20 10:25:58;;;;;;;;;;;;;;;13.82;46.79;97619.59;5075349;28;19924;-71
2022/04/20 10:28:28;;;;;;;;;;;;;;;14.13;47.09;97603.81;5074731;28;19927;-71
2022/04/20 10:31:07;;;;;;;;;;;;;;;13.41;45.21;97605.13;5076076;28;20581;-71
2022/04/20 10:33:34;;;;;;;;;;;;;;;13.84;46.71;97601.31;5076405;28;20023;-71
2022/04/20 10:36:02;;;;;;;;;;;;;;;14.00;46.55;97591.94;5073175;28;20254;-71
2022/04/20 10:38:29;;;;;;;;;;;;;;;14.01;44.75;97585.50;5074142;28;19921;-71
2022/04/20 10:40:59;;;;;;;;;;;;;;;13.85;46.21;97592.19;5075940;28;20262;-71
2022/04/20 10:43:26;;;;;;;;;;;;;;;13.92;45.59;97587.25;5077106;28;19921;-72
2022/04/20 10:46:03;;;;;;;;;;;;;;;13.61;44.70;97580.72;5074044;28;20351;-73
2022/04/20 10:48:42;;;;;;;;;;;;;;;14.12;45.78;97579.94;5073839;28;20784;-72
2022/04/20 10:51:14;;;;;;;;;;;;;;;14.39;45.92;97570.09;5066269;28;19925;-72
2022/04/20 10:53:41;;;;;;;;;;;;;;;14.56;44.32;97574.91;5072344;28;19921;-69
2022/04/20 10:56:09;;;;;;;;;;;;;;;14.26;42.81;97573.53;5075912;28;20023;-71
2022/04/20 10:58:35;;;;;;;;;;;;;;;14.40;44.98;97573.59;5077254;28;19924;-71
2022/04/20 11:01:09;;;;;;;;;;;;;;;14.64;44.45;97563.47;5074005;28;19931;-70
2022/04/20 11:03:50;;;;;;;;;;;;;;;14.47;43.35;97574.00;5073637;28;19988;-71
2022/04/20 11:06:16;;;;;;;;;;;;;;;14.70;43.97;97556.91;5066815;28;19984;-71
2022/04/20 11:08:43;;;;;;;;;;;;;;;14.46;42.22;97562.47;5073741;28;19921;-71
2022/04/20 11:19:48;;;;;;;;;;;;;;;14.67;44.71;97554.03;5079523;28;19939;-71
2022/04/20 11:22:15;;;;;;;;;;;;;;;14.39;43.23;97551.28;5076003;28;19993;-71
2022/04/20 11:24:42;;;;;;;;;;;;;;;13.74;42.42;97545.09;5076445;28;19971;-71
2022/04/20 11:27:10;;;;;;;;;;;;;;;13.52;43.02;97534.94;5081203;28;19924;-71
2022/04/20 11:29:37;;;;;;;;;;;;;;;13.94;44.35;97534.06;5080717;28;20300;-72
2022/04/20 11:32:04;;;;;;;;;;;;;;;14.20;42.79;97536.31;5076208;28;20015;-72
2022/04/20 11:34:32;;;;;;;;;;;;;;;14.00;42.92;97530.19;5077144;28;19984;-71
2022/04/20 11:37:00;;;;;;;;;;;;;;;13.72;42.88;97533.88;5079875;28;19943;-71
2022/04/20 11:39:28;;;;;;;;;;;;;;;13.73;43.14;97532.78;5080621;28;19924;-71
2022/04/20 11:41:55;;;;;;;;;;;;;;;13.62;43.64;97539.38;5078321;28;20593;-71
2022/04/20 11:44:23;;;;;;;;;;;;;;;13.90;42.67;97529.53;5077093;28;19925;-70
2022/04/20 11:46:50;;;;;;;;;;;;;;;14.18;44.16;97525.06;5077976;28;19976;-71
2022/04/20 11:49:16;;;;;;;;;;;;;;;13.92;42.12;97517.44;5079083;28;19929;-71
2022/04/20 11:51:45;;;;;;;;;;;;;;;14.16;43.83;97513.81;5078739;28;19988;-73
2022/04/20 11:54:17;;;;;;;;;;;;;;;14.66;43.64;97506.75;5076569;28;19947;-73
2022/04/20 11:56:44;;;;;;;;;;;;;;;14.69;41.66;97501.56;5077143;28;19964;-72
2022/04/20 11:59:10;;;;;;;;;;;;;;;15.04;42.33;97502.75;5080324;28;19931;-72
2022/04/20 12:01:38;;;;;;;;;;;;;;;14.63;39.93;97492.03;5080783;28;19955;-71
2022/04/20 12:04:11;;;;;;;;;;;;;;;14.53;41.47;97493.00;5067968;28;20342;-71
2022/04/20 12:06:38;;;;;;;;;;;;;;;14.47;40.39;97488.03;5077371;28;19925;-71
2022/04/20 12:09:07;;;;;;;;;;;;;;;14.07;39.99;97486.84;5079888;28;19942;-70
2022/04/20 12:11:34;;;;;;;;;;;;;;;14.20;41.70;97490.66;5079525;28;19924;-72
2022/04/20 12:14:00;;;;;;;;;;;;;;;14.48;41.85;97485.03;5076793;28;19960;-71
2022/04/20 12:16:27;;;;;;;;;;;;;;;14.75;42.78;97489.63;5074854;28;19924;-72
2022/04/20 12:18:54;;;;;;;;;;;;;;;14.58;40.66;97474.09;5076418;28;19925;-72
2022/04/20 12:21:40;;;;;;;;;;;;;;;14.74;40.78;97477.28;5079754;28;20000;-70
2022/04/20 12:24:07;;;;;;;;;;;;;;;14.60;39.63;97476.50;5067365;28;19925;-70
2022/04/20 12:26:33;;;;;;;;;;;;;;;14.58;39.60;97468.72;5077191;28;19927;-70
2022/04/20 12:29:00;;;;;;;;;;;;;;;14.40;40.26;97466.13;5078836;28;19924;-71
2022/04/20 12:31:27;;;;;;;;;;;;;;;14.50;39.96;97471.31;5080243;28;20030;-71
2022/04/20 12:34:01;;;;;;;;;;;;;;;14.67;40.71;97476.88;5077777;28;20032;-70
2022/04/20 12:36:29;;;;;;;;;;;;;;;14.90;39.98;97465.13;5075150;28;19943;-70
2022/04/20 12:38:56;;;;;;;;;;;;;;;14.96;37.30;97463.91;5078255;28;20000;-70
2022/04/20 12:41:38;;;;;;;;;;;;;;;14.82;38.09;97455.09;5079394;28;19956;-71
2022/04/20 12:44:19;;;;;;;;;;;;;;;15.04;39.70;97460.50;5074695;28;19920;-69
2022/04/20 12:46:47;;;;;;;;;;;;;;;15.06;37.37;97463.69;5074701;28;20054;-70
2022/04/20 12:49:23;;;;;;;;;;;;;;;14.91;38.95;97450.59;5079568;28;19925;-70
2022/04/20 12:51:50;;;;;;;;;;;;;;;14.93;37.83;97453.75;5076640;28;20000;-69
2022/04/20 12:54:22;;;;;;;;;;;;;;;14.93;37.80;97447.59;5075410;28;20008;-70
2022/04/20 13:02:17;;;;;;;;;;;;;;;15.03;37.14;97429.34;5069279;28;19925;-70
2022/04/20 13:04:48;;;;;;;;;;;;;;;15.06;36.24;97425.25;5075598;28;20449;-72
2022/04/20 13:07:14;;;;;;;;;;;;;;;15.09;35.63;97425.44;5078686;28;19974;-71
2022/04/20 13:09:41;;;;;;;;;;;;;;;15.06;37.36;97428.75;5077683;28;19960;-72
2022/04/20 13:12:08;;;;;;;;;;;;;;;15.14;36.19;97427.22;5075456;28;19924;-71
2022/04/20 13:14:35;;;;;;;;;;;;;;;15.18;35.93;97422.03;5075697;28;19936;-71
2022/04/20 13:17:02;;;;;;;;;;;;;;;15.07;36.41;97419.56;5077125;28;19936;-71
2022/04/20 13:19:28;;;;;;;;;;;;;;;15.02;33.40;97424.25;5079521;28;19955;-69
2022/04/20 13:21:56;;;;;;;;;;;;;;;15.02;32.41;97430.44;5077134;28;20019;-69
2022/04/20 13:29:47;;;;;;;;;;;;;;;15.07;33.64;97427.63;5078031;28;19927;-70
2022/04/20 13:32:14;;;;;;;;;;;;;;;15.19;34.26;97407.47;5074248;28;19921;-70
2022/04/20 13:34:41;;;;;;;;;;;;;;;15.25;34.51;97412.44;5075649;28;19955;-70
2022/04/20 13:37:08;;;;;;;;;;;;;;;15.21;35.15;97414.13;5079239;28;19924;-70